createdAt,value
2017-06-05T00:02:11.719Z,101283
2017-06-05T00:04:39.888Z,101293
2017-06-05T00:07:08.093Z,101288
2017-06-05T00:09:36.268Z,101290
2017-06-05T00:12:04.438Z,101290
2017-06-05T00:14:32.605Z,101286
2017-06-05T00:17:00.787Z,101284
2017-06-05T00:19:28.966Z,101300
2017-06-05T00:21:57.227Z,101298
2017-06-05T00:24:25.411Z,101291
2017-06-05T00:26:53.589Z,101294
2017-06-05T00:29:21.743Z,101289
2017-06-05T00:31:49.925Z,101294
2017-06-05T00:34:18.071Z,101283
2017-06-05T00:36:46.220Z,101291
2017-06-05T00:39:15.196Z,101288
2017-06-05T00:41:43.354Z,101292
2017-06-05T00:44:11.509Z,101297
2017-06-05T00:46:39.710Z,101294
2017-06-05T00:49:07.862Z,101295
2017-06-05T00:51:36.010Z,101289
2017-06-05T00:54:04.191Z,101287
2017-06-05T00:56:32.338Z,101293
2017-06-05T00:59:01.253Z,101293
2017-06-05T01:01:29.448Z,101292
2017-06-05T01:03:57.597Z,101290
2017-06-05T01:06:25.766Z,101288
2017-06-05T01:08:53.980Z,101292
2017-06-05T01:11:22.136Z,101300
2017-06-05T01:13:50.308Z,101295
2017-06-05T01:16:18.572Z,101294
2017-06-05T01:18:46.795Z,101287
2017-06-05T01:21:14.953Z,101298
2017-06-05T01:23:43.140Z,101303
2017-06-05T01:26:11.310Z,101293
2017-06-05T01:28:39.459Z,101301
2017-06-05T01:31:07.653Z,101294
2017-06-05T01:33:35.801Z,101301
2017-06-05T01:36:03.954Z,101302
2017-06-05T01:38:32.189Z,101301
2017-06-05T01:41:00.347Z,101301
2017-06-05T01:43:28.501Z,101303
2017-06-05T01:45:56.760Z,101306
2017-06-05T01:48:24.918Z,101300
2017-06-05T01:50:53.848Z,101303
2017-06-05T01:53:22.040Z,101297
2017-06-05T01:55:50.209Z,101294
2017-06-05T01:58:18.377Z,101299
2017-06-05T02:00:46.573Z,101294
2017-06-05T02:03:14.749Z,101296
2017-06-05T02:05:42.907Z,101298
2017-06-05T02:08:11.080Z,101305
2017-06-05T02:10:39.262Z,101293
2017-06-05T02:13:07.433Z,101293
2017-06-05T02:15:35.644Z,101293
2017-06-05T02:18:03.817Z,101282
2017-06-05T02:20:31.971Z,101284
2017-06-05T02:23:00.169Z,101286
2017-06-05T02:25:28.349Z,101287
2017-06-05T02:27:56.495Z,101298
2017-06-05T02:30:24.698Z,101301
2017-06-05T02:32:52.864Z,101293
2017-06-05T02:35:21.014Z,101292
2017-06-05T02:37:49.224Z,101295
2017-06-05T02:40:17.387Z,101291
2017-06-05T02:42:46.348Z,101292
2017-06-05T02:45:14.527Z,101293
2017-06-05T02:47:42.700Z,101296
2017-06-05T02:50:10.874Z,101299
2017-06-05T02:52:39.054Z,101301
2017-06-05T02:55:07.220Z,101304
2017-06-05T02:57:35.390Z,101307
2017-06-05T03:00:03.566Z,101311
2017-06-05T03:02:31.737Z,101310
2017-06-05T03:04:59.910Z,101305
2017-06-05T03:07:28.095Z,101309
2017-06-05T03:09:56.267Z,101304
2017-06-05T03:12:24.438Z,101306
2017-06-05T03:14:52.613Z,101315
2017-06-05T03:17:20.782Z,101302
2017-06-05T03:19:48.935Z,101313
2017-06-05T03:22:17.116Z,101308
2017-06-05T03:24:45.286Z,101311
2017-06-05T03:27:13.469Z,101311
2017-06-05T03:29:41.764Z,101317
2017-06-05T03:32:09.920Z,101310
2017-06-05T03:34:38.093Z,101313
2017-06-05T03:37:06.629Z,101306
2017-06-05T03:39:34.790Z,101312
2017-06-05T03:42:02.966Z,101314
2017-06-05T03:44:31.167Z,101312
2017-06-05T03:46:59.339Z,101316
2017-06-05T03:49:27.485Z,101311
2017-06-05T03:51:55.664Z,101307
2017-06-05T03:54:23.833Z,101310
2017-06-05T03:56:52.002Z,101317
2017-06-05T03:59:20.202Z,101304
2017-06-05T04:01:48.355Z,101308
2017-06-05T04:04:16.515Z,101302
2017-06-05T04:06:45.116Z,101298
2017-06-05T04:09:13.262Z,101305
2017-06-05T04:11:41.413Z,101306
2017-06-05T04:14:10.372Z,101304
2017-06-05T04:16:38.541Z,101304
2017-06-05T04:19:06.693Z,101294
2017-06-05T04:21:34.877Z,101293
2017-06-05T04:24:03.022Z,101305
2017-06-05T04:26:31.182Z,101291
2017-06-05T04:28:59.386Z,101294
2017-06-05T04:31:27.564Z,101291
2017-06-05T04:33:55.733Z,101298
2017-06-05T04:36:23.924Z,101294
2017-06-05T04:38:52.092Z,101287
2017-06-05T04:41:20.253Z,101294
2017-06-05T04:43:48.430Z,101291
2017-06-05T04:46:16.613Z,101283
2017-06-05T04:48:44.780Z,101281
2017-06-05T04:51:12.962Z,101283
2017-06-05T04:53:41.137Z,101281
2017-06-05T04:56:09.311Z,101285
2017-06-05T04:58:37.513Z,101300
2017-06-05T05:01:05.689Z,101284
2017-06-05T05:03:34.602Z,101286
2017-06-05T05:06:02.797Z,101293
2017-06-05T05:08:30.949Z,101290
2017-06-05T05:10:59.112Z,101288
2017-06-05T05:13:28.102Z,101294
2017-06-05T05:15:57.042Z,101288
2017-06-05T05:18:25.236Z,101299
2017-06-05T05:20:53.449Z,101293
2017-06-05T05:23:22.364Z,101295
2017-06-05T05:25:50.537Z,101295
2017-06-05T05:28:18.716Z,101299
2017-06-05T05:30:46.866Z,101302
2017-06-05T05:33:15.802Z,101306
2017-06-05T05:35:44.004Z,101297
2017-06-05T05:38:12.170Z,101304
2017-06-05T05:40:40.324Z,101300
2017-06-05T05:43:08.584Z,101301
2017-06-05T05:45:36.745Z,101306
2017-06-05T05:48:04.891Z,101306
2017-06-05T05:50:33.863Z,101303
2017-06-05T05:53:02.036Z,101306
2017-06-05T05:55:30.209Z,101311
2017-06-05T05:57:58.385Z,101317
2017-06-05T06:00:26.552Z,101307
2017-06-05T06:02:54.709Z,101323
2017-06-05T06:05:22.917Z,101321
2017-06-05T06:07:51.076Z,101313
2017-06-05T06:10:19.226Z,101318
2017-06-05T06:12:47.541Z,101310
2017-06-05T06:15:15.700Z,101324
2017-06-05T06:17:43.854Z,101315
2017-06-05T06:20:12.795Z,101322
2017-06-05T06:22:40.942Z,101318
2017-06-05T06:25:09.099Z,101321
2017-06-05T06:27:38.046Z,101318
2017-06-05T06:30:06.199Z,101320
2017-06-05T06:32:34.358Z,101318
2017-06-05T06:35:02.541Z,101311
2017-06-05T06:37:30.691Z,101311
2017-06-05T06:39:59.640Z,101308
2017-06-05T06:42:29.466Z,101310
2017-06-05T06:44:57.636Z,101308
2017-06-05T06:47:25.783Z,101310
2017-06-05T06:49:53.985Z,101302
2017-06-05T06:52:22.161Z,101301
2017-06-05T06:54:50.305Z,101303
2017-06-05T06:57:18.493Z,101308
2017-06-05T06:59:46.668Z,101302
2017-06-05T07:02:14.817Z,101307
2017-06-05T07:04:43.017Z,101307
2017-06-05T07:07:11.188Z,101301
2017-06-05T07:09:39.344Z,101296
2017-06-05T07:12:07.541Z,101295
2017-06-05T07:14:35.706Z,101291
2017-06-05T07:17:03.874Z,101296
2017-06-05T07:19:32.058Z,101296
2017-06-05T07:22:00.217Z,101285
2017-06-05T07:24:29.155Z,101282
2017-06-05T07:26:57.361Z,101283
2017-06-05T07:29:25.635Z,101279
2017-06-05T07:31:53.804Z,101283
2017-06-05T07:34:22.006Z,101279
2017-06-05T07:36:50.941Z,101273
2017-06-05T07:39:19.085Z,101282
2017-06-05T07:41:48.025Z,101277
2017-06-05T07:44:16.176Z,101276
2017-06-05T07:46:44.349Z,101286
2017-06-05T07:49:12.548Z,101283
2017-06-05T07:51:40.726Z,101288
2017-06-05T07:54:08.915Z,101284
2017-06-05T07:56:37.251Z,101279
2017-06-05T07:59:06.188Z,101286
2017-06-05T08:01:34.951Z,101273
2017-06-05T08:04:03.931Z,101283
2017-06-05T08:06:32.094Z,101294
2017-06-05T08:09:00.269Z,101285
2017-06-05T08:11:28.479Z,101288
2017-06-05T08:13:57.412Z,101290
2017-06-05T08:16:25.567Z,101276
2017-06-05T08:18:53.755Z,101269
2017-06-05T08:21:21.932Z,101275
2017-06-05T08:23:50.091Z,101279
2017-06-05T08:26:18.277Z,101274
2017-06-05T08:28:46.435Z,101276
2017-06-05T08:31:14.601Z,101268
2017-06-05T08:33:42.804Z,101270
2017-06-05T08:36:10.965Z,101265
2017-06-05T08:38:39.135Z,101272
2017-06-05T08:41:07.342Z,101262
2017-06-05T08:43:35.499Z,101269
2017-06-05T08:46:06.624Z,101266
2017-06-05T08:48:34.827Z,101267
2017-06-05T08:51:03.002Z,101263
2017-06-05T08:53:31.174Z,101268
2017-06-05T08:55:59.376Z,101259
2017-06-05T08:58:27.535Z,101263
2017-06-05T09:00:55.706Z,101263
2017-06-05T09:03:23.893Z,101255
2017-06-05T09:05:52.077Z,101263
2017-06-05T09:08:20.235Z,101258
2017-06-05T09:10:48.431Z,101257
2017-06-05T09:13:16.595Z,101275
2017-06-05T09:15:44.765Z,101261
2017-06-05T09:18:12.943Z,101273
2017-06-05T09:20:41.113Z,101273
2017-06-05T09:23:09.258Z,101253
2017-06-05T09:25:37.447Z,101266
2017-06-05T09:28:05.594Z,101268
2017-06-05T09:30:33.764Z,101262
2017-06-05T09:33:01.951Z,101259
2017-06-05T09:35:30.098Z,101257
2017-06-05T09:37:58.272Z,101242
2017-06-05T09:40:26.476Z,101255
2017-06-05T09:42:54.649Z,101244
2017-06-05T09:45:22.815Z,101255
2017-06-05T09:47:50.999Z,101255
2017-06-05T09:50:19.158Z,101243
2017-06-05T09:52:47.317Z,101239
2017-06-05T09:55:15.526Z,101242
2017-06-05T09:57:43.697Z,101253
2017-06-05T10:00:11.855Z,101247
2017-06-05T10:02:40.052Z,101235
2017-06-05T10:05:08.226Z,101237
2017-06-05T10:07:36.382Z,101247
2017-06-05T10:10:04.576Z,101233
2017-06-05T10:12:32.724Z,101226
2017-06-05T10:15:00.870Z,101229
2017-06-05T10:17:29.844Z,101227
2017-06-05T10:19:58.013Z,101219
2017-06-05T10:22:26.170Z,101235
2017-06-05T10:24:54.366Z,101224
2017-06-05T10:27:23.303Z,101231
2017-06-05T10:29:51.487Z,101230
2017-06-05T10:32:19.688Z,101232
2017-06-05T10:34:47.856Z,101236
2017-06-05T10:37:16.027Z,101237
2017-06-05T10:39:44.253Z,101231
2017-06-05T10:42:13.197Z,101227
2017-06-05T10:44:41.373Z,101229
2017-06-05T10:47:09.578Z,101219
2017-06-05T10:49:38.512Z,101217
2017-06-05T10:52:06.658Z,101228
2017-06-05T10:54:34.838Z,101218
2017-06-05T10:57:03.010Z,101215
2017-06-05T10:59:31.177Z,101213
2017-06-05T11:01:59.374Z,101208
2017-06-05T11:04:27.553Z,101207
2017-06-05T11:06:55.713Z,101222
2017-06-05T11:09:23.921Z,101207
2017-06-05T11:11:52.070Z,101208
2017-06-05T11:14:20.241Z,101210
2017-06-05T11:16:48.422Z,101207
2017-06-05T11:19:16.600Z,101201
2017-06-05T11:21:44.780Z,101200
2017-06-05T11:24:12.988Z,101203
2017-06-05T11:26:41.141Z,101203
2017-06-05T11:29:09.293Z,101201
2017-06-05T11:31:37.497Z,101193
2017-06-05T11:34:05.662Z,101198
2017-06-05T11:36:33.839Z,101187
2017-06-05T11:39:02.046Z,101193
2017-06-05T11:41:30.963Z,101187
2017-06-05T11:43:59.170Z,101190
2017-06-05T11:46:27.373Z,101186
2017-06-05T11:48:55.548Z,101180
2017-06-05T11:51:23.713Z,101162
2017-06-05T11:53:51.917Z,101162
2017-06-05T11:56:20.846Z,101164
2017-06-05T11:58:49.007Z,101168
2017-06-05T12:01:17.189Z,101172
2017-06-05T12:03:45.358Z,101174
2017-06-05T12:06:13.530Z,101174
2017-06-05T12:08:41.735Z,101160
2017-06-05T12:11:09.902Z,101156
2017-06-05T12:13:38.084Z,101158
2017-06-05T12:16:06.278Z,101158
2017-06-05T12:18:34.431Z,101164
2017-06-05T12:21:02.610Z,101157
2017-06-05T12:23:30.815Z,101157
2017-06-05T12:25:58.985Z,101155
2017-06-05T12:28:27.143Z,101160
2017-06-05T12:30:55.346Z,101151
2017-06-05T12:33:23.512Z,101148
2017-06-05T12:35:51.685Z,101149
2017-06-05T12:38:19.887Z,101135
2017-06-05T12:40:48.805Z,101145
2017-06-05T12:43:16.959Z,101150
2017-06-05T12:45:45.938Z,101146
2017-06-05T12:48:14.861Z,101137
2017-06-05T12:50:43.032Z,101143
2017-06-05T12:53:11.244Z,101135
2017-06-05T12:55:39.413Z,101130
2017-06-05T12:58:07.571Z,101135
2017-06-05T13:00:35.754Z,101128
2017-06-05T13:03:03.902Z,101123
2017-06-05T13:05:32.090Z,101115
2017-06-05T13:08:00.293Z,101126
2017-06-05T13:10:28.433Z,101118
2017-06-05T13:12:56.597Z,101121
2017-06-05T13:15:24.783Z,101108
2017-06-05T13:17:52.931Z,101104
2017-06-05T13:20:21.918Z,101100
2017-06-05T13:22:50.870Z,101087
2017-06-05T13:25:19.039Z,101101
2017-06-05T13:27:47.209Z,101121
2017-06-05T13:30:15.383Z,101094
2017-06-05T13:32:43.535Z,101088
2017-06-05T13:35:11.701Z,101088
2017-06-05T13:37:39.911Z,101072
2017-06-05T13:40:08.080Z,101071
2017-06-05T13:42:36.230Z,101073
2017-06-05T13:45:04.423Z,101075
2017-06-05T13:47:32.579Z,101077
2017-06-05T13:50:00.753Z,101082
2017-06-05T13:52:28.938Z,101064
2017-06-05T13:54:57.086Z,101084
2017-06-05T13:57:25.266Z,101078
2017-06-05T13:59:53.462Z,101078
2017-06-05T14:02:21.609Z,101065
2017-06-05T14:04:50.544Z,101072
2017-06-05T14:07:18.740Z,101058
2017-06-05T14:09:46.895Z,101057
2017-06-05T14:12:15.067Z,101054
2017-06-05T14:14:43.248Z,101060
2017-06-05T14:17:11.399Z,101043
2017-06-05T14:19:39.553Z,101054
2017-06-05T14:22:08.513Z,101050
2017-06-05T14:24:36.693Z,101039
2017-06-05T14:27:04.846Z,101037
2017-06-05T14:29:33.051Z,101042
2017-06-05T14:32:01.194Z,101030
2017-06-05T14:34:29.338Z,101044
2017-06-05T14:36:57.537Z,101040
2017-06-05T14:39:25.685Z,101030
2017-06-05T14:41:53.859Z,101028
2017-06-05T14:44:22.064Z,101026
2017-06-05T14:46:50.222Z,101010
2017-06-05T14:49:18.378Z,101020
2017-06-05T14:51:46.573Z,101020
2017-06-05T14:54:14.745Z,101014
2017-06-05T14:56:42.921Z,101004
2017-06-05T14:59:11.121Z,101006
2017-06-05T15:01:39.284Z,101000
2017-06-05T15:04:07.456Z,101005
2017-06-05T15:06:35.634Z,100994
2017-06-05T15:09:03.784Z,100991
2017-06-05T15:11:31.931Z,101000
2017-06-05T15:14:00.114Z,101002
2017-06-05T15:16:28.261Z,101000
2017-06-05T15:18:57.183Z,100993
2017-06-05T15:21:25.354Z,100982
2017-06-05T15:23:53.522Z,100985
2017-06-05T15:26:21.689Z,100991
2017-06-05T15:28:50.649Z,100986
2017-06-05T15:31:18.794Z,100976
2017-06-05T15:33:46.953Z,100979
2017-06-05T15:36:15.153Z,100988
2017-06-05T15:38:43.311Z,100970
2017-06-05T15:41:11.467Z,100977
2017-06-05T15:43:39.675Z,100973
2017-06-05T15:46:07.858Z,100963
2017-06-05T15:48:36.009Z,100974
2017-06-05T15:51:04.183Z,100964
2017-06-05T15:53:32.329Z,100954
2017-06-05T15:56:01.265Z,100953
2017-06-05T15:58:29.484Z,100955
2017-06-05T16:00:58.432Z,100964
2017-06-05T16:03:26.602Z,100950
2017-06-05T16:05:54.786Z,100946
2017-06-05T16:08:22.941Z,100949
2017-06-05T16:10:51.103Z,100931
2017-06-05T16:13:19.289Z,100934
2017-06-05T16:15:47.461Z,100936
2017-06-05T16:18:15.634Z,100937
2017-06-05T16:20:43.817Z,100939
2017-06-05T16:23:11.964Z,100937
2017-06-05T16:25:40.133Z,100933
2017-06-05T16:28:08.322Z,100933
2017-06-05T16:30:36.473Z,100918
2017-06-05T16:33:05.414Z,100931
2017-06-05T16:35:33.694Z,100924
2017-06-05T16:38:01.867Z,100919
2017-06-05T16:40:30.044Z,100917
2017-06-05T16:42:58.229Z,100908
2017-06-05T16:45:26.382Z,100907
2017-06-05T16:47:54.534Z,100911
2017-06-05T16:50:23.505Z,100905
2017-06-05T16:52:52.437Z,100905
2017-06-05T16:55:20.597Z,100907
2017-06-05T16:57:49.565Z,100907
2017-06-05T17:00:17.729Z,100902
2017-06-05T17:02:45.905Z,100911
2017-06-05T17:05:14.082Z,100895
2017-06-05T17:07:42.248Z,100898
2017-06-05T17:10:10.422Z,100904
2017-06-05T17:12:38.598Z,100893
2017-06-05T17:15:06.765Z,100894
2017-06-05T17:17:35.000Z,100879
2017-06-05T17:20:03.938Z,100887
2017-06-05T17:22:32.087Z,100882
2017-06-05T17:25:00.245Z,100876
2017-06-05T17:27:28.460Z,100881
2017-06-05T17:29:56.628Z,100876
2017-06-05T17:32:24.778Z,100880
2017-06-05T17:34:52.981Z,100873
2017-06-05T17:37:21.131Z,100866
2017-06-05T17:39:49.287Z,100867
2017-06-05T17:42:18.263Z,100873
2017-06-05T17:44:47.182Z,100875
2017-06-05T17:47:15.384Z,100866
2017-06-05T17:49:44.690Z,100869
2017-06-05T17:52:12.861Z,100861
2017-06-05T17:54:41.015Z,100866
2017-06-05T17:57:09.194Z,100862
2017-06-05T17:59:37.369Z,100861
2017-06-05T18:02:05.546Z,100861
2017-06-05T18:04:33.752Z,100868
2017-06-05T18:07:02.689Z,100864
2017-06-05T18:09:30.842Z,100859
2017-06-05T18:11:59.027Z,100852
2017-06-05T18:14:27.199Z,100859
2017-06-05T18:16:55.367Z,100859
2017-06-05T18:19:23.568Z,100852
2017-06-05T18:21:51.713Z,100854
2017-06-05T18:24:19.880Z,100846
2017-06-05T18:26:48.076Z,100847
2017-06-05T18:29:16.225Z,100852
2017-06-05T18:31:44.375Z,100852
2017-06-05T18:34:12.577Z,100847
2017-06-05T18:36:40.752Z,100855
2017-06-05T18:39:08.928Z,100844
2017-06-05T18:41:37.110Z,100838
2017-06-05T18:44:05.275Z,100838
2017-06-05T18:46:33.446Z,100839
2017-06-05T18:49:01.623Z,100843
2017-06-05T18:51:29.905Z,100838
2017-06-05T18:53:58.063Z,100845
2017-06-05T18:56:26.233Z,100843
2017-06-05T18:58:54.436Z,100825
2017-06-05T19:01:22.584Z,100835
2017-06-05T19:03:50.800Z,100835
2017-06-05T19:06:18.959Z,100836
2017-06-05T19:08:47.127Z,100834
2017-06-05T19:11:15.329Z,100836
2017-06-05T19:13:43.486Z,100837
2017-06-05T19:16:11.641Z,100839
2017-06-05T19:18:39.861Z,100843
2017-06-05T19:21:08.028Z,100844
2017-06-05T19:23:36.239Z,100839
2017-06-05T19:26:04.450Z,100837
2017-06-05T19:28:32.601Z,100833
2017-06-05T19:31:00.780Z,100833
2017-06-05T19:33:28.999Z,100843
2017-06-05T19:35:57.158Z,100836
2017-06-05T19:38:25.306Z,100835
2017-06-05T19:40:53.493Z,100826
2017-06-05T19:43:21.652Z,100835
2017-06-05T19:45:49.798Z,100830
2017-06-05T19:48:18.760Z,100838
2017-06-05T19:50:46.911Z,100832
2017-06-05T19:53:15.065Z,100832
2017-06-05T19:55:43.285Z,100835
2017-06-05T19:58:11.453Z,100833
2017-06-05T20:00:39.629Z,100828
2017-06-05T20:03:07.805Z,100833
2017-06-05T20:05:35.978Z,100836
2017-06-05T20:08:04.133Z,100829
2017-06-05T20:10:32.317Z,100833
2017-06-05T20:13:00.495Z,100829
2017-06-05T20:15:28.648Z,100828
2017-06-05T20:17:56.864Z,100827
2017-06-05T20:20:25.029Z,100819
2017-06-05T20:22:53.197Z,100825
2017-06-05T20:25:21.370Z,100821
2017-06-05T20:27:49.545Z,100816
2017-06-05T20:30:17.699Z,100825
2017-06-05T20:32:45.909Z,100817
2017-06-05T20:35:14.071Z,100810
2017-06-05T20:37:42.244Z,100812
2017-06-05T20:42:47.642Z,100806
2017-06-05T20:45:16.617Z,100806
2017-06-05T20:47:44.826Z,100810
2017-06-05T20:50:12.990Z,100806
2017-06-05T20:52:41.965Z,100809
2017-06-05T20:55:10.901Z,100809
2017-06-05T20:57:39.046Z,100803
2017-06-05T21:00:07.994Z,100797
2017-06-05T21:02:36.147Z,100803
2017-06-05T21:05:04.306Z,100800
2017-06-05T21:07:32.486Z,100804
2017-06-05T21:10:00.630Z,100804
2017-06-05T21:12:29.607Z,100796
2017-06-05T21:14:57.835Z,100798
2017-06-05T21:17:26.027Z,100795
2017-06-05T21:19:54.202Z,100796
2017-06-05T21:22:22.385Z,100788
2017-06-05T21:24:50.542Z,100787
2017-06-05T21:27:18.754Z,100784
2017-06-05T21:29:46.960Z,100794
2017-06-05T21:32:15.896Z,100781
2017-06-05T21:34:44.062Z,100784
2017-06-05T21:37:12.255Z,100776
2017-06-05T21:39:40.445Z,100778
2017-06-05T21:42:08.615Z,100779
2017-06-05T21:44:37.566Z,100777
2017-06-05T21:47:05.777Z,100776
2017-06-05T21:49:33.962Z,100775
2017-06-05T21:52:02.955Z,100776
2017-06-05T21:54:31.963Z,100768
2017-06-05T21:57:00.180Z,100772
2017-06-05T21:59:28.382Z,100767
2017-06-05T22:01:56.576Z,100763
2017-06-05T22:04:25.497Z,100773
2017-06-05T22:06:53.693Z,100767
2017-06-05T22:09:22.001Z,100769
2017-06-05T22:11:50.191Z,100760
2017-06-05T22:14:19.139Z,100760
2017-06-05T22:16:47.308Z,100755
2017-06-05T22:19:15.468Z,100749
2017-06-05T22:21:43.673Z,100741
2017-06-05T22:24:11.814Z,100740
2017-06-05T22:26:39.978Z,100737
2017-06-05T22:29:08.163Z,100731
2017-06-05T22:31:36.314Z,100729
2017-06-05T22:34:05.233Z,100728
2017-06-05T22:36:33.441Z,100727
2017-06-05T22:39:01.598Z,100720
2017-06-05T22:41:30.382Z,100717
2017-06-05T22:43:59.274Z,100713
2017-06-05T22:46:27.430Z,100707
2017-06-05T22:48:55.608Z,100709
2017-06-05T22:51:23.782Z,100708
2017-06-05T22:53:51.951Z,100706
2017-06-05T22:56:20.118Z,100700
2017-06-05T22:58:48.302Z,100706
2017-06-05T23:01:16.474Z,100703
2017-06-05T23:03:44.645Z,100701
2017-06-05T23:06:12.843Z,100700
2017-06-05T23:08:41.020Z,100697
2017-06-05T23:11:09.212Z,100696
2017-06-05T23:13:37.453Z,100685
2017-06-05T23:16:05.620Z,100694
2017-06-05T23:18:33.774Z,100685
2017-06-05T23:21:02.726Z,100673
2017-06-05T23:23:30.889Z,100674
2017-06-05T23:25:59.062Z,100675
2017-06-05T23:28:27.239Z,100670
2017-06-05T23:30:55.480Z,100658
2017-06-05T23:33:23.631Z,100662
2017-06-05T23:35:52.611Z,100655
2017-06-05T23:38:20.761Z,100658
2017-06-05T23:40:48.948Z,100652
2017-06-05T23:43:17.127Z,100643
2017-06-05T23:45:45.278Z,100650
2017-06-05T23:48:13.441Z,100637
2017-06-05T23:50:41.619Z,100646
2017-06-05T23:53:09.784Z,100639
2017-06-05T23:55:37.932Z,100639
2017-06-05T23:58:06.889Z,100643
